createdAt,value
2023-10-25T00:00:00.149Z,1008.2
2023-10-25T00:05:00.143Z,1008.2
2023-10-25T00:10:00.240Z,1008.3
2023-10-25T00:15:00.194Z,1008.2
2023-10-25T00:20:00.207Z,1008.1
2023-10-25T00:25:00.250Z,1008.1
2023-10-25T00:30:00.186Z,1008.1
2023-10-25T00:35:00.131Z,1008.1
2023-10-25T00:40:00.188Z,1007.9
2023-10-25T00:45:00.160Z,1007.9
2023-10-25T00:50:00.229Z,1008
2023-10-25T00:55:00.220Z,1008
2023-10-25T01:00:00.141Z,1007.9
2023-10-25T01:05:00.144Z,1007.9
2023-10-25T01:10:00.278Z,1007.9
2023-10-25T01:15:00.141Z,1007.8
2023-10-25T01:20:00.157Z,1007.7
2023-10-25T01:25:00.222Z,1007.8
2023-10-25T01:30:00.146Z,1007.8
2023-10-25T01:35:00.162Z,1007.8
2023-10-25T01:40:00.211Z,1007.8
2023-10-25T01:45:00.184Z,1007.8
2023-10-25T01:50:00.191Z,1007.9
2023-10-25T01:55:00.225Z,1007.9
2023-10-25T02:00:00.158Z,1007.9
2023-10-25T02:05:00.189Z,1007.8
2023-10-25T02:10:00.252Z,1007.9
2023-10-25T02:15:00.178Z,1007.9
2023-10-25T02:20:00.161Z,1007.9
2023-10-25T02:25:00.304Z,1007.9
2023-10-25T02:30:00.164Z,1007.9
2023-10-25T02:35:00.162Z,1008
2023-10-25T02:40:00.220Z,1007.9
2023-10-25T02:45:00.182Z,1007.8
2023-10-25T02:50:00.162Z,1007.8
2023-10-25T02:55:00.219Z,1007.8
2023-10-25T03:00:00.149Z,1007.9
2023-10-25T03:05:00.153Z,1007.8
2023-10-25T03:10:00.205Z,1007.9
2023-10-25T03:15:00.166Z,1007.9
2023-10-25T03:20:00.159Z,1007.8
2023-10-25T03:25:00.302Z,1007.7
2023-10-25T03:30:00.142Z,1007.7
2023-10-25T03:35:00.146Z,1007.7
2023-10-25T03:40:00.203Z,1007.6
2023-10-25T03:45:00.166Z,1007.4
2023-10-25T03:50:00.161Z,1007.6
2023-10-25T03:55:00.179Z,1007.4
2023-10-25T04:00:00.160Z,1007.5
2023-10-25T04:05:00.149Z,1007.5
2023-10-25T04:10:00.209Z,1007.4
2023-10-25T04:15:00.125Z,1007.4
2023-10-25T04:20:00.159Z,1007.3
2023-10-25T04:25:00.262Z,1007.3
2023-10-25T04:30:00.163Z,1007.3
2023-10-25T04:35:00.191Z,1007.2
2023-10-25T04:40:00.174Z,1007.2
2023-10-25T04:45:00.147Z,1007.1
2023-10-25T04:50:00.154Z,1007.1
2023-10-25T04:55:00.165Z,1006.9
2023-10-25T05:00:00.134Z,1006.9
2023-10-25T05:05:00.137Z,1006.9
2023-10-25T05:10:00.185Z,1006.7
2023-10-25T05:15:00.144Z,1006.6
2023-10-25T05:20:00.144Z,1006.6
2023-10-25T05:25:00.186Z,1006.6
2023-10-25T05:30:00.201Z,1006.6
2023-10-25T05:35:00.129Z,1006.5
2023-10-25T05:40:00.200Z,1006.6
2023-10-25T05:45:00.150Z,1006.6
2023-10-25T05:50:00.153Z,1006.5
2023-10-25T05:55:00.182Z,1006.5
2023-10-25T06:00:00.123Z,1006.6
2023-10-25T06:05:01.482Z,1006.6
2023-10-25T06:10:00.164Z,1006.6
2023-10-25T06:15:00.125Z,1006.6
2023-10-25T06:20:00.173Z,1006.7
2023-10-25T06:25:00.210Z,1006.6
2023-10-25T06:30:00.132Z,1006.7
2023-10-25T06:35:00.163Z,1006.7
2023-10-25T06:40:00.239Z,1006.7
2023-10-25T06:45:00.136Z,1006.7
2023-10-25T06:50:00.117Z,1006.6
2023-10-25T06:55:00.167Z,1006.7
2023-10-25T07:00:00.174Z,1006.5
2023-10-25T07:05:00.157Z,1006.5
2023-10-25T07:10:00.220Z,1006.5
2023-10-25T07:15:00.156Z,1006.4
2023-10-25T07:20:00.122Z,1006.4
2023-10-25T07:25:00.165Z,1006.4
2023-10-25T07:30:00.129Z,1006.4
2023-10-25T07:35:00.168Z,1006.4
2023-10-25T07:40:00.199Z,1006.4
2023-10-25T07:45:00.159Z,1006.1
2023-10-25T07:50:00.151Z,1006
2023-10-25T07:55:00.210Z,1006
2023-10-25T08:00:00.137Z,1005.9
2023-10-25T08:05:00.119Z,1005.9
2023-10-25T08:10:00.134Z,1006
2023-10-25T08:15:00.165Z,1006
2023-10-25T08:20:00.137Z,1005.7
2023-10-25T08:25:00.125Z,1005.7
2023-10-25T08:30:00.180Z,1005.8
2023-10-25T08:35:00.153Z,1005.7
2023-10-25T08:40:00.164Z,1005.6
2023-10-25T08:45:00.199Z,1005.5
2023-10-25T08:50:00.120Z,1005.4
2023-10-25T08:55:00.157Z,1005.3
2023-10-25T09:00:00.223Z,1005.4
2023-10-25T09:05:00.252Z,1005.3
2023-10-25T09:10:00.140Z,1005.4
2023-10-25T09:15:00.218Z,1005.4
2023-10-25T09:20:00.163Z,1005.3
2023-10-25T09:25:00.162Z,1005.2
2023-10-25T09:30:00.666Z,1005.1
2023-10-25T09:35:00.179Z,1005.1
2023-10-25T09:40:00.142Z,1004.9
2023-10-25T09:45:00.299Z,1004.9
2023-10-25T09:50:00.196Z,1004.7
2023-10-25T09:55:00.141Z,1004.4
2023-10-25T10:00:00.209Z,1004.3
2023-10-25T10:05:00.116Z,1004.3
2023-10-25T10:10:00.177Z,1004.4
2023-10-25T10:15:00.176Z,1004.3
2023-10-25T10:20:00.189Z,1004.1
2023-10-25T10:25:00.135Z,1004
2023-10-25T10:30:00.198Z,1004
2023-10-25T10:35:00.178Z,1003.9
2023-10-25T10:40:04.442Z,1003.8
2023-10-25T10:45:00.389Z,1003.8
2023-10-25T10:50:00.141Z,1003.7
2023-10-25T10:55:00.165Z,1003.5
2023-10-25T11:00:00.198Z,1003.4
2023-10-25T11:05:00.133Z,1003.2
2023-10-25T11:10:00.175Z,1003.2
2023-10-25T11:15:00.283Z,1003.1
2023-10-25T11:20:00.139Z,1003.1
2023-10-25T11:25:00.150Z,1002.9
2023-10-25T11:30:00.179Z,1002.9
2023-10-25T11:35:00.154Z,1002.8
2023-10-25T11:40:00.233Z,1002.7
2023-10-25T11:45:00.158Z,1002.7
2023-10-25T11:50:00.219Z,1002.5
2023-10-25T11:55:00.115Z,1002.4
2023-10-25T12:00:00.262Z,1002.3
2023-10-25T12:05:00.201Z,1002.4
2023-10-25T12:10:00.138Z,1002.2
2023-10-25T12:15:00.220Z,1002
2023-10-25T12:20:07.518Z,1001.8
2023-10-25T12:25:00.134Z,1001.6
2023-10-25T12:30:00.179Z,1001.5
2023-10-25T12:35:00.145Z,1001.5
2023-10-25T12:40:00.131Z,1001.2
2023-10-25T12:45:00.200Z,1001.2
2023-10-25T12:50:00.202Z,1001.1
2023-10-25T12:55:00.154Z,1000.9
2023-10-25T13:00:00.157Z,1001.1
2023-10-25T13:05:00.228Z,1000.9
2023-10-25T13:10:00.176Z,1000.8
2023-10-25T13:15:00.158Z,1000.6
2023-10-25T13:20:00.219Z,1000.5
2023-10-25T13:25:00.156Z,1000.5
2023-10-25T13:30:00.198Z,1000.5
2023-10-25T13:35:00.139Z,1000.4
2023-10-25T13:40:00.183Z,1000.3
2023-10-25T13:45:00.159Z,1000.1
2023-10-25T13:50:00.180Z,1000.1
2023-10-25T13:55:00.134Z,999.9
2023-10-25T14:00:00.214Z,999.9
2023-10-25T14:05:00.146Z,999.7
2023-10-25T14:10:00.145Z,999.7
2023-10-25T14:15:00.265Z,999.5
2023-10-25T14:20:00.135Z,999.6
2023-10-25T14:25:00.146Z,999.5
2023-10-25T14:30:00.179Z,999.4
2023-10-25T14:35:00.159Z,999.3
2023-10-25T14:40:00.161Z,999.2
2023-10-25T14:45:00.170Z,999.1
2023-10-25T14:50:00.148Z,999.1
2023-10-25T14:55:00.126Z,999.1
2023-10-25T15:00:00.162Z,998.9
2023-10-25T15:05:00.209Z,998.8
2023-10-25T15:10:00.162Z,998.7
2023-10-25T15:15:00.150Z,998.6
2023-10-25T15:20:00.159Z,998.5
2023-10-25T15:25:00.149Z,998.4
2023-10-25T15:30:00.177Z,998.4
2023-10-25T15:35:00.142Z,998.5
2023-10-25T15:40:11.973Z,998.3
2023-10-25T15:45:00.168Z,998.4
2023-10-25T15:50:00.181Z,998.3
2023-10-25T15:55:00.128Z,998.3
2023-10-25T16:00:00.148Z,998.2
2023-10-25T16:05:00.167Z,998.3
2023-10-25T16:10:00.161Z,998.3
2023-10-25T16:15:00.172Z,998.2
2023-10-25T16:20:00.156Z,998
2023-10-25T16:25:01.202Z,997.9
2023-10-25T16:30:00.225Z,997.7
2023-10-25T16:35:00.145Z,997.8
2023-10-25T16:40:00.148Z,997.8
2023-10-25T16:45:00.228Z,997.7
2023-10-25T16:50:00.149Z,997.6
2023-10-25T16:55:00.164Z,997.6
2023-10-25T17:00:00.259Z,997.6
2023-10-25T17:05:00.242Z,997.5
2023-10-25T17:10:00.154Z,997.5
2023-10-25T17:15:00.218Z,997.5
2023-10-25T17:20:00.246Z,997.4
2023-10-25T17:25:00.147Z,997.4
2023-10-25T17:30:00.216Z,997.3
2023-10-25T17:35:00.136Z,997.3
2023-10-25T17:40:00.179Z,997.2
2023-10-25T17:45:00.177Z,997.1
2023-10-25T17:50:00.152Z,997.1
2023-10-25T17:55:00.166Z,997
2023-10-25T18:00:00.187Z,996.9
2023-10-25T18:05:00.135Z,996.9
2023-10-25T18:10:00.180Z,996.9
2023-10-25T18:15:00.176Z,996.9
2023-10-25T18:20:00.157Z,996.9
2023-10-25T18:25:00.137Z,997
2023-10-25T18:30:07.510Z,997
2023-10-25T18:35:00.393Z,997.1
2023-10-25T18:40:00.112Z,997.1
2023-10-25T18:45:00.148Z,997
2023-10-25T18:50:00.159Z,997
2023-10-25T18:55:00.130Z,997
2023-10-25T19:00:00.164Z,996.9
2023-10-25T19:06:24.476Z,996.9
2023-10-25T19:15:00.182Z,996.9
2023-10-25T19:20:11.499Z,996.9
2023-10-25T19:25:00.153Z,996.8
2023-10-25T19:30:00.534Z,996.9
2023-10-25T19:35:00.160Z,996.8
2023-10-25T19:40:00.172Z,996.8
2023-10-25T19:45:00.175Z,996.7
2023-10-25T19:50:00.180Z,996.5
2023-10-25T19:55:00.130Z,996.5
2023-10-25T20:00:00.262Z,996.4
2023-10-25T20:05:00.148Z,996.4
2023-10-25T20:10:00.172Z,996.4
2023-10-25T20:15:00.169Z,996.4
2023-10-25T20:20:00.151Z,996.3
2023-10-25T20:25:01.297Z,996.4
2023-10-25T20:30:00.144Z,996.4
2023-10-25T20:35:00.121Z,996.3
2023-10-25T20:40:00.133Z,996.4
2023-10-25T20:45:00.155Z,996.4
2023-10-25T20:50:00.204Z,996.4
2023-10-25T20:55:00.123Z,996.4
2023-10-25T21:00:00.172Z,996.4
2023-10-25T21:05:00.188Z,996.5
2023-10-25T21:10:00.204Z,996.6
2023-10-25T21:15:00.202Z,996.7
2023-10-25T21:20:00.161Z,996.7
2023-10-25T21:25:00.121Z,996.8
2023-10-25T21:30:00.180Z,996.9
2023-10-25T21:35:00.131Z,997.1
2023-10-25T21:40:00.142Z,997.1
2023-10-25T21:45:00.124Z,997.2
2023-10-25T21:50:00.121Z,997.3
2023-10-25T21:55:00.158Z,997.4
2023-10-25T22:00:00.213Z,997.5
2023-10-25T22:05:00.241Z,997.6
2023-10-25T22:10:00.163Z,997.6
2023-10-25T22:15:00.210Z,997.6
2023-10-25T22:20:00.167Z,997.7
2023-10-25T22:25:00.205Z,997.7
2023-10-25T22:30:00.309Z,997.9
2023-10-25T22:35:00.143Z,997.8
2023-10-25T22:40:00.168Z,997.9
2023-10-25T22:45:00.202Z,998
2023-10-25T22:50:00.190Z,998
2023-10-25T22:55:00.170Z,998.1
2023-10-25T23:00:00.186Z,998
2023-10-25T23:05:00.226Z,998.1
2023-10-25T23:10:00.119Z,998.2
2023-10-25T23:15:00.197Z,998.1
2023-10-25T23:20:00.157Z,998.2
2023-10-25T23:25:00.155Z,998.3
2023-10-25T23:30:00.167Z,998.3
2023-10-25T23:35:00.143Z,998.5
2023-10-25T23:40:00.158Z,998.5
2023-10-25T23:45:00.191Z,998.4
2023-10-25T23:50:00.155Z,998.5
2023-10-25T23:55:00.267Z,998.5
